createdAt,value
2019-05-10T00:00:11.525Z,78.90
2019-05-10T00:02:59.356Z,79.00
2019-05-10T00:05:48.115Z,79.20
2019-05-10T00:08:35.853Z,79.10
2019-05-10T00:11:35.197Z,79.00
2019-05-10T00:14:28.783Z,78.90
2019-05-10T00:17:16.182Z,78.70
2019-05-10T00:19:46.032Z,78.40
2019-05-10T00:22:15.915Z,78.80
2019-05-10T00:25:02.345Z,78.80
2019-05-10T00:27:19.963Z,78.40
2019-05-10T00:29:49.387Z,79.20
2019-05-10T00:32:19.296Z,78.80
2019-05-10T00:34:49.205Z,78.80
2019-05-10T00:37:19.026Z,78.60
2019-05-10T00:39:52.393Z,78.60
2019-05-10T00:42:22.684Z,78.90
2019-05-10T00:44:52.431Z,78.00
2019-05-10T00:47:24.141Z,78.30
2019-05-10T00:49:55.055Z,78.60
2019-05-10T00:52:24.924Z,78.20
2019-05-10T00:54:54.688Z,79.00
2019-05-10T00:57:24.964Z,78.40
2019-05-10T00:59:54.700Z,78.20
2019-05-10T01:02:24.417Z,77.70
2019-05-10T01:04:54.539Z,78.60
2019-05-10T01:07:27.081Z,78.70
2019-05-10T01:09:56.962Z,78.40
2019-05-10T01:12:26.869Z,77.70
2019-05-10T01:14:56.589Z,78.10
2019-05-10T01:17:26.450Z,78.90
2019-05-10T01:20:04.738Z,78.80
2019-05-10T01:22:37.475Z,78.30
2019-05-10T01:25:07.921Z,78.60
2019-05-10T01:27:37.626Z,78.40
2019-05-10T01:30:07.765Z,78.20
2019-05-10T01:32:37.789Z,78.50
2019-05-10T01:35:08.609Z,78.40
2019-05-10T01:37:44.760Z,78.40
2019-05-10T01:40:14.520Z,78.40
2019-05-10T01:42:44.361Z,79.20
2019-05-10T01:45:20.030Z,78.90
2019-05-10T01:47:49.738Z,79.60
2019-05-10T01:50:20.853Z,79.10
2019-05-10T01:52:50.698Z,79.40
2019-05-10T01:55:20.542Z,79.40
2019-05-10T01:57:50.337Z,79.70
2019-05-10T02:00:20.340Z,79.70
2019-05-10T02:02:51.511Z,80.00
2019-05-10T02:05:22.784Z,80.50
2019-05-10T02:07:53.979Z,80.50
2019-05-10T02:10:24.048Z,80.20
2019-05-10T02:12:53.746Z,80.40
2019-05-10T02:15:23.537Z,80.10
2019-05-10T02:17:56.313Z,80.00
2019-05-10T02:20:27.532Z,80.80
2019-05-10T02:22:57.354Z,80.00
2019-05-10T02:25:28.247Z,80.20
2019-05-10T02:27:58.058Z,80.30
2019-05-10T02:30:27.990Z,80.10
2019-05-10T02:33:03.904Z,80.60
2019-05-10T02:35:33.823Z,81.20
2019-05-10T02:38:03.623Z,80.60
2019-05-10T02:40:33.460Z,80.60
2019-05-10T02:43:04.661Z,80.70
2019-05-10T02:45:34.560Z,80.60
2019-05-10T02:48:04.298Z,80.70
2019-05-10T02:50:33.971Z,80.50
2019-05-10T02:53:03.985Z,80.50
2019-05-10T02:55:35.206Z,81.10
2019-05-10T02:58:05.496Z,80.90
2019-05-10T03:08:54.371Z,80.30
2019-05-10T03:11:25.745Z,80.50
2019-05-10T03:13:57.221Z,80.40
2019-05-10T03:16:31.323Z,80.10
2019-05-10T03:19:02.233Z,80.80
2019-05-10T03:21:36.435Z,80.60
2019-05-10T03:24:06.336Z,80.30
2019-05-10T03:26:50.621Z,80.50
2019-05-10T03:29:15.185Z,80.50
2019-05-10T03:31:45.146Z,80.50
2019-05-10T03:34:15.087Z,80.50
2019-05-10T03:36:45.099Z,80.60
2019-05-10T03:39:14.925Z,80.30
2019-05-10T03:41:44.724Z,80.50
2019-05-10T03:44:14.650Z,80.70
2019-05-10T03:46:44.508Z,80.50
2019-05-10T03:49:14.363Z,80.50
2019-05-10T03:51:44.253Z,80.60
2019-05-10T03:54:13.913Z,80.70
2019-05-10T03:56:43.756Z,80.30
2019-05-10T03:59:13.506Z,80.10
2019-05-10T04:01:43.304Z,79.80
2019-05-10T04:04:13.052Z,80.30
2019-05-10T04:06:42.755Z,80.30
2019-05-10T04:09:12.650Z,80.60
2019-05-10T04:11:43.982Z,80.30
2019-05-10T04:14:13.873Z,80.50
2019-05-10T04:16:43.662Z,80.10
2019-05-10T04:19:13.390Z,80.50
2019-05-10T04:21:45.710Z,81.10
2019-05-10T04:24:15.443Z,80.60
2019-05-10T04:26:45.374Z,80.70
2019-05-10T04:29:15.125Z,80.40
2019-05-10T04:31:44.822Z,79.90
2019-05-10T04:34:16.533Z,80.20
2019-05-10T04:36:46.208Z,80.40
2019-05-10T04:39:15.955Z,80.00
2019-05-10T04:41:45.742Z,80.70
2019-05-10T04:44:15.570Z,80.20
2019-05-10T04:46:45.231Z,80.30
2019-05-10T04:49:15.069Z,80.30
2019-05-10T04:51:44.765Z,80.20
2019-05-10T04:54:14.495Z,81.30
2019-05-10T04:56:44.269Z,79.60
2019-05-10T04:59:14.008Z,79.90
2019-05-10T05:01:43.797Z,80.70
2019-05-10T05:04:13.647Z,80.00
2019-05-10T05:06:43.529Z,79.50
2019-05-10T05:09:14.713Z,78.90
2019-05-10T05:11:44.617Z,79.00
2019-05-10T05:14:14.504Z,78.20
2019-05-10T05:16:44.289Z,78.50
2019-05-10T05:19:14.006Z,79.40
2019-05-10T05:21:43.740Z,79.40
2019-05-10T05:24:16.977Z,78.20
2019-05-10T05:26:44.883Z,78.10
2019-05-10T05:29:16.449Z,78.50
2019-05-10T05:31:54.082Z,79.10
2019-05-10T05:34:21.201Z,79.20
2019-05-10T05:36:51.041Z,78.30
2019-05-10T05:39:20.956Z,77.50
2019-05-10T05:41:52.210Z,76.80
2019-05-10T05:44:26.121Z,76.80
2019-05-10T05:46:53.994Z,78.70
2019-05-10T05:49:23.991Z,77.30
2019-05-10T05:51:55.832Z,77.70
2019-05-10T05:54:25.308Z,76.00
2019-05-10T05:56:55.112Z,76.30
2019-05-10T05:59:26.269Z,75.30
2019-05-10T06:02:00.565Z,76.80
2019-05-10T06:04:27.871Z,76.80
2019-05-10T06:07:00.585Z,75.40
2019-05-10T06:09:37.657Z,75.10
2019-05-10T06:12:07.422Z,75.50
2019-05-10T06:14:43.084Z,75.20
2019-05-10T06:17:13.691Z,75.40
2019-05-10T06:19:45.991Z,75.20
2019-05-10T06:22:15.766Z,73.40
2019-05-10T06:24:46.788Z,73.50
2019-05-10T06:27:20.339Z,75.40
2019-05-10T06:29:53.238Z,74.70
2019-05-10T06:32:30.394Z,75.50
2019-05-10T06:35:02.429Z,73.30
2019-05-10T06:37:31.947Z,73.50
2019-05-10T06:40:08.105Z,74.90
2019-05-10T06:42:38.809Z,73.10
2019-05-10T06:45:14.327Z,75.10
2019-05-10T06:47:42.111Z,73.00
2019-05-10T06:50:12.618Z,73.50
2019-05-10T06:52:42.384Z,72.20
2019-05-10T06:55:19.296Z,72.60
2019-05-10T06:57:50.520Z,73.20
2019-05-10T07:00:22.006Z,72.00
2019-05-10T07:02:51.804Z,71.70
2019-05-10T07:05:21.644Z,72.20
2019-05-10T07:07:51.399Z,71.50
2019-05-10T07:10:25.142Z,72.00
2019-05-10T07:12:57.161Z,72.60
2019-05-10T07:15:27.372Z,71.70
2019-05-10T07:17:57.208Z,72.30
2019-05-10T07:20:29.604Z,72.10
2019-05-10T07:23:05.881Z,74.00
2019-05-10T07:25:31.737Z,72.70
2019-05-10T07:28:01.533Z,75.00
2019-05-10T07:30:34.189Z,71.40
2019-05-10T07:33:04.280Z,71.40
2019-05-10T07:35:39.627Z,70.40
2019-05-10T07:38:12.512Z,70.90
2019-05-10T07:40:45.609Z,67.90
2019-05-10T07:43:24.713Z,67.60
2019-05-10T07:45:46.951Z,66.60
2019-05-10T07:48:16.793Z,66.40
2019-05-10T07:50:57.264Z,66.40
2019-05-10T07:53:32.049Z,67.00
2019-05-10T07:56:06.020Z,66.60
2019-05-10T07:58:38.381Z,65.70
2019-05-10T08:01:06.186Z,64.40
2019-05-10T08:03:44.217Z,64.40
2019-05-10T08:06:15.433Z,65.90
2019-05-10T08:08:45.350Z,65.30
2019-05-10T08:11:15.437Z,69.50
2019-05-10T08:13:45.392Z,67.50
2019-05-10T08:16:21.836Z,63.90
2019-05-10T08:18:49.927Z,62.20
2019-05-10T08:21:23.961Z,58.80
2019-05-10T08:23:51.916Z,60.40
2019-05-10T08:26:24.808Z,60.10
2019-05-10T08:28:56.907Z,60.90
2019-05-10T08:31:33.758Z,62.10
2019-05-10T08:34:03.116Z,63.50
2019-05-10T08:36:37.382Z,63.20
2019-05-10T08:39:10.608Z,66.80
2019-05-10T08:41:42.912Z,66.90
2019-05-10T08:44:19.459Z,64.60
2019-05-10T08:46:46.562Z,66.40
2019-05-10T08:49:21.991Z,66.90
2019-05-10T08:51:52.302Z,61.80
2019-05-10T08:54:25.889Z,62.40
2019-05-10T08:59:42.677Z,64.20
2019-05-10T09:02:14.528Z,64.20
2019-05-10T09:04:49.894Z,63.00
2019-05-10T09:07:17.741Z,61.20
2019-05-10T09:09:53.042Z,60.60
2019-05-10T09:12:23.226Z,62.10
2019-05-10T09:14:57.358Z,62.20
2019-05-10T09:17:29.246Z,62.60
2019-05-10T09:20:02.681Z,66.70
2019-05-10T09:22:38.552Z,68.10
2019-05-10T09:25:07.573Z,69.70
2019-05-10T09:27:37.329Z,70.70
2019-05-10T09:30:08.094Z,72.40
2019-05-10T09:32:39.951Z,72.00
2019-05-10T09:35:12.764Z,73.40
2019-05-10T09:37:47.788Z,75.40
2019-05-10T09:40:15.247Z,76.60
2019-05-10T09:42:48.374Z,80.10
2019-05-10T09:45:18.263Z,80.10
2019-05-10T09:47:49.675Z,83.10
2019-05-10T09:50:22.950Z,85.70
2019-05-10T09:52:52.299Z,85.70
2019-05-10T09:55:22.426Z,83.20
2019-05-10T09:57:52.378Z,84.80
2019-05-10T10:00:33.375Z,86.20
2019-05-10T10:03:12.574Z,85.20
2019-05-10T10:05:44.625Z,85.10
2019-05-10T10:08:14.543Z,86.50
2019-05-10T10:10:44.428Z,86.00
2019-05-10T10:13:18.719Z,86.10
2019-05-10T10:15:51.515Z,85.80
2019-05-10T10:18:21.283Z,87.90
2019-05-10T10:20:49.041Z,84.30
2019-05-10T10:23:19.209Z,83.30
2019-05-10T10:25:49.162Z,81.00
2019-05-10T10:28:22.596Z,79.50
2019-05-10T10:30:58.814Z,80.90
2019-05-10T10:33:26.311Z,81.50
2019-05-10T10:36:04.555Z,80.30
2019-05-10T10:38:38.277Z,82.30
2019-05-10T10:41:03.900Z,86.20
2019-05-10T10:43:37.074Z,82.10
2019-05-10T10:46:12.498Z,83.40
2019-05-10T10:48:48.373Z,81.60
2019-05-10T10:51:15.334Z,82.70
2019-05-10T10:53:47.049Z,83.80
2019-05-10T10:56:17.618Z,83.30
2019-05-10T10:58:50.607Z,83.20
2019-05-10T11:01:25.425Z,82.40
2019-05-10T11:03:55.656Z,80.70
2019-05-10T11:06:30.127Z,83.10
2019-05-10T11:09:21.226Z,84.80
2019-05-10T11:11:51.682Z,83.00
2019-05-10T11:14:23.236Z,87.20
2019-05-10T11:16:57.024Z,78.70
2019-05-10T11:19:26.296Z,81.20
2019-05-10T11:21:56.531Z,81.00
2019-05-10T11:24:26.733Z,78.40
2019-05-10T11:27:01.103Z,81.50
2019-05-10T11:29:35.664Z,76.00
2019-05-10T11:32:16.801Z,70.90
2019-05-10T11:34:38.799Z,69.00
2019-05-10T11:37:11.368Z,69.80
2019-05-10T11:39:46.883Z,72.30
2019-05-10T11:42:17.163Z,75.90
2019-05-10T11:44:54.353Z,69.60
2019-05-10T11:47:26.983Z,69.80
2019-05-10T11:50:06.231Z,69.20
2019-05-10T11:52:34.620Z,71.20
2019-05-10T11:55:08.334Z,68.90
2019-05-10T11:57:43.865Z,70.00
2019-05-10T12:00:24.520Z,71.40
2019-05-10T12:03:03.197Z,67.40
2019-05-10T12:07:54.138Z,65.10
2019-05-10T12:10:25.579Z,67.50
2019-05-10T12:13:08.749Z,66.10
2019-05-10T12:15:31.781Z,65.50
2019-05-10T12:18:04.765Z,64.40
2019-05-10T12:20:54.076Z,63.00
2019-05-10T12:23:13.146Z,61.80
2019-05-10T12:25:57.339Z,60.70
2019-05-10T12:26:16.068Z,69.10
2019-05-10T12:28:24.070Z,62.90
2019-05-10T12:30:51.188Z,60.00
2019-05-10T12:33:25.815Z,60.90
2019-05-10T12:35:55.283Z,60.00
2019-05-10T12:38:29.737Z,59.70
2019-05-10T12:41:07.474Z,60.70
2019-05-10T12:43:37.329Z,60.70
2019-05-10T12:46:10.618Z,56.80
2019-05-10T12:48:42.732Z,58.20
2019-05-10T12:51:15.980Z,58.60
2019-05-10T12:53:47.639Z,57.50
2019-05-10T12:56:23.344Z,58.00
2019-05-10T12:58:57.646Z,57.70
2019-05-10T13:01:31.830Z,56.40
2019-05-10T13:04:02.167Z,59.00
2019-05-10T13:06:37.307Z,57.90
2019-05-10T13:09:08.173Z,57.40
2019-05-10T13:12:03.721Z,58.00
2019-05-10T13:14:31.250Z,56.80
2019-05-10T13:17:09.725Z,56.80
2019-05-10T13:19:40.675Z,57.30
2019-05-10T13:22:13.579Z,58.40
2019-05-10T13:24:43.668Z,59.60
2019-05-10T13:27:16.567Z,63.90
2019-05-10T13:29:52.929Z,64.50
2019-05-10T13:32:20.432Z,66.10
2019-05-10T13:34:49.529Z,65.70
2019-05-10T13:37:24.742Z,68.00
2019-05-10T13:39:50.902Z,70.70
2019-05-10T13:42:20.675Z,74.00
2019-05-10T13:44:50.569Z,72.00
2019-05-10T13:47:20.637Z,72.70
2019-05-10T13:49:53.371Z,73.50
2019-05-10T13:52:30.088Z,73.60
2019-05-10T13:54:56.240Z,71.00
2019-05-10T13:57:54.642Z,74.40
2019-05-10T14:00:34.486Z,77.60
2019-05-10T14:03:11.311Z,76.80
2019-05-10T14:05:40.559Z,80.50
2019-05-10T14:08:12.455Z,74.20
2019-05-10T14:10:42.040Z,74.40
2019-05-10T14:13:11.796Z,77.20
2019-05-10T14:15:44.669Z,77.80
2019-05-10T14:18:18.505Z,75.70
2019-05-10T14:20:48.372Z,76.90
2019-05-10T14:23:20.464Z,70.60
2019-05-10T14:25:54.151Z,70.70
2019-05-10T14:28:24.024Z,69.20
2019-05-10T14:30:57.481Z,70.90
2019-05-10T14:33:25.428Z,66.20
2019-05-10T14:36:00.863Z,68.10
2019-05-10T14:38:28.119Z,68.70
2019-05-10T14:41:04.038Z,65.70
2019-05-10T14:43:35.908Z,65.70
2019-05-10T14:46:13.283Z,66.10
2019-05-10T14:48:37.259Z,65.50
2019-05-10T14:51:13.636Z,64.90
2019-05-10T14:53:46.537Z,65.50
2019-05-10T14:56:17.671Z,66.10
2019-05-10T14:58:48.776Z,66.10
2019-05-10T15:01:21.015Z,69.30
2019-05-10T15:03:53.806Z,70.30
2019-05-10T15:06:23.629Z,68.50
2019-05-10T15:08:53.607Z,68.90
2019-05-10T15:11:31.493Z,68.60
2019-05-10T15:14:05.099Z,67.90
2019-05-10T15:16:38.167Z,69.10
2019-05-10T15:19:08.008Z,67.00
2019-05-10T15:21:37.885Z,68.00
2019-05-10T15:24:09.290Z,69.10
2019-05-10T15:26:43.901Z,64.40
2019-05-10T15:29:14.968Z,65.90
2019-05-10T15:31:45.066Z,66.00
2019-05-10T15:34:17.644Z,62.20
2019-05-10T15:36:47.420Z,63.50
2019-05-10T15:39:22.990Z,63.30
2019-05-10T15:41:53.616Z,64.30
2019-05-10T15:44:31.254Z,61.30
2019-05-10T15:47:01.696Z,63.20
2019-05-10T15:49:31.481Z,60.40
2019-05-10T15:52:16.982Z,59.50
2019-05-10T15:54:38.003Z,60.80
2019-05-10T15:57:06.202Z,58.50
2019-05-10T15:59:36.109Z,57.80
2019-05-10T16:02:06.108Z,58.30
2019-05-10T16:04:38.447Z,59.30
2019-05-10T16:07:09.338Z,57.10
2019-05-10T16:09:40.254Z,57.50
2019-05-10T16:12:13.048Z,58.50
2019-05-10T16:14:45.918Z,58.20
2019-05-10T16:17:23.357Z,57.10
2019-05-10T16:19:59.500Z,56.80
2019-05-10T16:22:30.242Z,55.90
2019-05-10T16:25:01.221Z,56.40
2019-05-10T16:27:33.858Z,56.20
2019-05-10T16:30:11.988Z,56.00
2019-05-10T16:32:44.287Z,56.70
2019-05-10T16:35:14.691Z,57.60
2019-05-10T16:37:44.961Z,56.80
2019-05-10T16:40:15.136Z,55.10
2019-05-10T16:42:46.326Z,55.40
2019-05-10T16:45:16.532Z,55.50
2019-05-10T16:47:46.894Z,56.40
2019-05-10T16:50:20.701Z,55.10
2019-05-10T16:52:50.693Z,55.00
2019-05-10T16:55:24.161Z,55.80
2019-05-10T16:57:56.415Z,55.00
2019-05-10T17:00:27.310Z,54.50
2019-05-10T17:03:02.107Z,55.20
2019-05-10T17:05:31.989Z,55.60
2019-05-10T17:08:01.896Z,56.10
2019-05-10T17:10:32.824Z,59.10
2019-05-10T17:13:06.532Z,59.00
2019-05-10T17:15:40.045Z,57.90
2019-05-10T17:18:17.678Z,58.50
2019-05-10T17:20:50.706Z,58.30
2019-05-10T17:23:20.739Z,57.70
2019-05-10T17:25:51.102Z,57.60
2019-05-10T17:28:23.410Z,56.50
2019-05-10T17:31:00.014Z,56.40
2019-05-10T17:33:29.261Z,58.00
2019-05-10T17:36:08.340Z,58.20
2019-05-10T17:38:33.034Z,59.50
2019-05-10T17:41:05.652Z,58.70
2019-05-10T17:43:35.642Z,58.70
2019-05-10T17:46:12.768Z,58.40
2019-05-10T17:48:40.905Z,58.00
2019-05-10T17:51:11.563Z,57.80
2019-05-10T17:53:44.018Z,58.20
2019-05-10T17:56:17.852Z,58.70
2019-05-10T17:58:51.290Z,59.30
2019-05-10T18:01:22.638Z,58.70
2019-05-10T18:03:52.610Z,59.10
2019-05-10T18:06:24.547Z,59.80
2019-05-10T18:08:54.713Z,59.80
2019-05-10T18:11:24.725Z,61.60
2019-05-10T18:13:57.024Z,62.30
2019-05-10T18:16:35.258Z,62.40
2019-05-10T18:19:05.304Z,63.10
2019-05-10T18:21:36.209Z,63.80
2019-05-10T18:24:06.005Z,62.90
2019-05-10T18:26:39.704Z,64.10
2019-05-10T18:29:09.131Z,64.30
2019-05-10T18:31:40.832Z,64.20
2019-05-10T18:34:13.114Z,64.50
2019-05-10T18:36:51.584Z,64.20
2019-05-10T18:39:19.919Z,64.60
2019-05-10T18:41:52.291Z,64.20
2019-05-10T18:44:22.212Z,63.60
2019-05-10T18:46:54.899Z,64.00
2019-05-10T18:49:24.676Z,64.50
2019-05-10T18:52:03.570Z,66.20
2019-05-10T18:54:28.397Z,66.90
2019-05-10T18:57:04.767Z,68.00
2019-05-10T18:59:31.195Z,67.90
2019-05-10T19:02:01.007Z,68.20
2019-05-10T19:04:31.367Z,69.20
2019-05-10T19:07:09.738Z,69.10
2019-05-10T19:09:32.651Z,69.60
2019-05-10T19:12:02.391Z,70.30
2019-05-10T19:14:32.150Z,71.00
2019-05-10T19:17:09.469Z,71.30
2019-05-10T19:19:41.422Z,71.50
2019-05-10T19:22:08.855Z,71.60
2019-05-10T19:24:41.870Z,71.40
2019-05-10T19:27:11.597Z,72.00
2019-05-10T19:30:25.466Z,73.00
2019-05-10T19:34:19.259Z,73.80
2019-05-10T19:37:49.715Z,75.50
2019-05-10T19:41:05.294Z,77.30
2019-05-10T19:43:35.547Z,77.30
2019-05-10T19:47:55.469Z,77.50
2019-05-10T19:50:24.272Z,77.00
2019-05-10T19:53:40.110Z,77.60
2019-05-10T19:56:36.919Z,77.50
2019-05-10T19:59:05.551Z,77.50
2019-05-10T20:01:36.253Z,77.80
2019-05-10T20:04:09.176Z,78.10
2019-05-10T20:06:37.495Z,78.50
2019-05-10T20:09:10.312Z,78.90
2019-05-10T20:11:40.043Z,80.20
2019-05-10T20:14:09.762Z,80.90
2019-05-10T20:16:52.042Z,80.90
2019-05-10T20:19:14.138Z,80.60
2019-05-10T20:21:43.827Z,79.80
2019-05-10T20:24:13.673Z,79.60
2019-05-10T20:26:43.459Z,80.10
2019-05-10T20:29:13.165Z,80.20
2019-05-10T20:31:44.070Z,80.30
2019-05-10T20:34:13.962Z,80.80
2019-05-10T20:36:43.739Z,81.00
2019-05-10T20:39:15.863Z,81.50
2019-05-10T20:41:45.655Z,81.90
2019-05-10T20:44:21.346Z,81.40
2019-05-10T20:46:51.307Z,80.60
2019-05-10T20:49:22.377Z,79.90
2019-05-10T20:51:55.453Z,79.40
2019-05-10T20:54:28.192Z,79.20
2019-05-10T20:56:59.550Z,78.20
2019-05-10T20:59:33.867Z,77.90
2019-05-10T21:02:12.642Z,77.90
2019-05-10T21:04:42.317Z,79.20
2019-05-10T21:07:20.132Z,80.10
2019-05-10T21:09:53.235Z,80.90
2019-05-10T21:12:28.681Z,81.20
2019-05-10T21:14:58.291Z,81.00
2019-05-10T21:17:31.471Z,82.10
2019-05-10T21:20:01.503Z,83.20
2019-05-10T21:23:44.197Z,84.00
2019-05-10T21:25:42.685Z,83.70
2019-05-10T21:28:38.269Z,82.90
2019-05-10T21:31:32.309Z,82.50
2019-05-10T21:34:37.574Z,83.50
2019-05-10T21:40:52.934Z,83.50
2019-05-10T21:43:45.532Z,82.50
2019-05-10T21:46:26.527Z,83.40
2019-05-10T21:49:01.900Z,84.90
2019-05-10T21:51:27.816Z,85.10
2019-05-10T21:53:57.457Z,85.30
2019-05-10T21:56:27.258Z,86.70
2019-05-10T21:58:57.041Z,87.90
2019-05-10T22:01:27.083Z,88.40
2019-05-10T22:03:56.950Z,87.90
2019-05-10T22:06:26.674Z,87.50
2019-05-10T22:08:56.378Z,87.30
2019-05-10T22:11:26.231Z,87.10
2019-05-10T22:13:55.952Z,86.60
2019-05-10T22:16:25.683Z,87.60
2019-05-10T22:19:00.980Z,88.40
2019-05-10T22:21:30.764Z,89.10
2019-05-10T22:24:00.475Z,89.60
2019-05-10T22:26:30.185Z,89.60
2019-05-10T22:28:59.849Z,88.70
2019-05-10T22:31:29.610Z,89.50
2019-05-10T22:33:59.325Z,89.50
2019-05-10T22:36:29.065Z,88.50
2019-05-10T22:39:07.257Z,87.60
2019-05-10T22:41:30.188Z,87.20
2019-05-10T22:43:59.910Z,86.70
2019-05-10T22:46:29.597Z,86.70
2019-05-10T22:48:59.497Z,86.50
2019-05-10T22:51:29.196Z,86.50
2019-05-10T22:54:00.245Z,86.80
2019-05-10T22:56:30.326Z,87.10
2019-05-10T22:59:00.055Z,88.10
2019-05-10T23:01:29.735Z,88.60
2019-05-10T23:03:59.615Z,88.50
2019-05-10T23:06:29.313Z,88.80
2019-05-10T23:08:59.030Z,88.70
2019-05-10T23:11:28.683Z,89.10
2019-05-10T23:13:58.488Z,88.20
2019-05-10T23:16:28.230Z,87.60
2019-05-10T23:18:57.856Z,86.70
2019-05-10T23:21:27.652Z,85.10
2019-05-10T23:23:57.382Z,85.30
2019-05-10T23:26:27.087Z,85.90
2019-05-10T23:28:56.829Z,85.90
2019-05-10T23:31:26.603Z,86.20
2019-05-10T23:33:56.299Z,86.40
2019-05-10T23:36:26.051Z,87.60
2019-05-10T23:38:55.773Z,89.00
2019-05-10T23:41:25.610Z,89.80
2019-05-10T23:43:55.326Z,90.00
2019-05-10T23:46:25.225Z,90.00
2019-05-10T23:48:54.948Z,90.10
2019-05-10T23:51:24.724Z,90.10
2019-05-10T23:53:54.446Z,90.10
2019-05-10T23:56:24.169Z,90.50
2019-05-10T23:58:53.856Z,90.40
